Time;durP1;ratioP1;P1;durP2;ratioP2;P2;SDS_P1;SDS_P2;PMS_P1;PMS_P2;Temp;Humidity;BMP_temperature;BMP_pressure;BME280_temperature;BME280_humidity;BME280_pressure;Samples;Min_cycle;Max_cycle;Signal;HPM_P1;HPM_P2
2021/08/17 17:37:59;;;;;;;;;;;27.20;50.80;;;;;;5145732;27;20360;-90
2021/08/17 17:40:24;;;;;;;;;;;26.70;53.50;;;;;;5112122;28;20006;-90
2021/08/17 17:42:50;;;;;;;;;;;26.60;54.90;;;;;;5112490;28;19912;-91
2021/08/17 17:45:15;;;;;;;;;;;26.60;55.90;;;;;;5112213;28;19908;-94
2021/08/17 17:47:41;;;;;;;;;;;26.60;57.10;;;;;;5110853;28;20275;-94
2021/08/17 17:50:07;;;;;;;;;;;26.60;57.60;;;;;;5111945;28;19908;-94
2021/08/17 17:52:33;;;;;;;;;;;26.60;58.10;;;;;;5111857;28;20000;-93
2021/08/17 17:54:58;;;;;;;;;;;26.60;58.60;;;;;;5111895;28;19912;-92
2021/08/17 17:57:24;;;;;;;;;;;26.60;59.10;;;;;;5111980;28;20248;-93
2021/08/17 17:59:50;;;;;;;;;;;26.60;59.70;;;;;;5111823;28;20257;-93
2021/08/17 18:02:15;;;;;;;;;;;26.50;60.20;;;;;;5112094;28;19957;-92
2021/08/17 18:04:42;;;;;;;;;;;26.60;60.50;;;;;;5110817;28;19908;-92
2021/08/17 18:07:08;;;;;;;;;;;26.50;60.60;;;;;;5111711;28;19915;-92
2021/08/17 18:09:34;;;;;;;;;;;26.40;60.70;;;;;;5111864;28;19923;-92
2021/08/17 18:12:00;;;;;;;;;;;26.40;61.00;;;;;;5111801;28;19908;-92
2021/08/17 18:14:25;;;;;;;;;;;26.40;61.40;;;;;;5111766;28;20310;-91
2021/08/17 18:16:51;;;;;;;;;;;26.30;61.50;;;;;;5111379;28;20279;-92
2021/08/17 18:19:17;;;;;;;;;;;26.30;61.70;;;;;;5110050;28;19912;-92
2021/08/17 18:21:44;;;;;;;;;;;26.20;62.00;;;;;;5111341;28;19908;-92
2021/08/17 18:24:09;;;;;;;;;;;26.20;62.50;;;;;;5111560;28;20309;-91
2021/08/17 18:26:35;;;;;;;;;;;26.10;62.70;;;;;;5111505;28;19938;-92
2021/08/17 18:29:06;;;;;;;;;;;26.00;62.80;;;;;;5111553;28;19908;-92
2021/08/17 18:31:33;;;;;;;;;;;26.00;63.20;;;;;;5111418;28;19908;-92
2021/08/17 18:33:58;;;;;;;;;;;26.00;63.40;;;;;;5109867;28;19908;-93
2021/08/17 18:36:24;;;;;;;;;;;25.90;63.70;;;;;;5109605;28;19931;-92
2021/08/17 18:38:50;;;;;;;;;;;25.80;63.90;;;;;;5110926;28;19961;-93
2021/08/17 18:41:15;;;;;;;;;;;25.80;64.40;;;;;;5111083;28;20363;-93
2021/08/17 18:43:41;;;;;;;;;;;25.70;64.60;;;;;;5109616;28;19930;-92
2021/08/17 18:46:07;;;;;;;;;;;25.70;64.80;;;;;;5109751;28;19957;-92
2021/08/17 18:48:33;;;;;;;;;;;25.60;64.70;;;;;;5101639;28;20393;-93
2021/08/17 18:51:00;;;;;;;;;;;25.60;65.00;;;;;;5097252;28;19912;-94
2021/08/17 18:53:25;;;;;;;;;;;25.50;65.30;;;;;;5095967;28;19943;-92
2021/08/17 18:55:51;;;;;;;;;;;25.40;65.70;;;;;;5095846;28;19998;-94
2021/08/17 18:58:17;;;;;;;;;;;25.30;66.10;;;;;;5098546;28;19908;-93
2021/08/17 19:00:45;;;;;;;;;;;25.30;66.40;;;;;;5097073;28;19962;-96
2021/08/17 19:03:11;;;;;;;;;;;25.20;66.60;;;;;;5098804;28;19931;-93
2021/08/17 19:05:36;;;;;;;;;;;25.20;66.80;;;;;;5096331;28;20359;-93
2021/08/17 19:08:02;;;;;;;;;;;25.10;67.10;;;;;;5097224;28;19908;-93
2021/08/17 19:10:28;;;;;;;;;;;25.10;67.10;;;;;;5095722;28;19933;-93
2021/08/17 19:12:53;;;;;;;;;;;25.00;67.20;;;;;;5097031;28;19915;-92
2021/08/17 19:15:19;;;;;;;;;;;25.00;67.40;;;;;;5095769;28;19912;-93
2021/08/17 19:17:45;;;;;;;;;;;25.00;67.60;;;;;;5096786;28;19912;-93
2021/08/17 19:20:11;;;;;;;;;;;24.90;67.90;;;;;;5096903;28;19908;-93
2021/08/17 19:22:37;;;;;;;;;;;24.90;68.10;;;;;;5095544;28;19908;-93
2021/08/17 19:25:03;;;;;;;;;;;24.80;68.20;;;;;;5095502;28;19908;-94
2021/08/17 19:27:31;;;;;;;;;;;24.70;68.30;;;;;;5096002;28;20300;-94
2021/08/17 19:29:58;;;;;;;;;;;24.70;68.50;;;;;;5095308;28;19909;-95
2021/08/17 19:32:23;;;;;;;;;;;24.70;68.70;;;;;;5095663;28;20276;-94
2021/08/17 19:34:49;;;;;;;;;;;24.70;69.10;;;;;;5095287;28;20339;-95
2021/08/17 19:37:15;;;;;;;;;;;24.60;69.40;;;;;;5096544;28;20006;-95
2021/08/17 19:39:41;;;;;;;;;;;24.50;69.80;;;;;;5096477;28;19947;-96
2021/08/17 19:42:08;;;;;;;;;;;24.40;70.00;;;;;;5128803;27;19912;-94
2021/08/17 19:56:20;;;;;;;;;;;23.80;66.70;;;;;;5072219;28;19912;-91
